Time;durP1;ratioP1;P1;durP2;ratioP2;P2;SDS_P1;SDS_P2;PMS_P1;PMS_P2;Temp;Humidity;BMP_temperature;BMP_pressure;BME280_temperature;BME280_humidity;BME280_pressure;Samples;Min_cycle;Max_cycle;Signal;HPM_P1;HPM_P2
2023/10/27 00:00:12;;;;;;;25.67;7.20;;;;;10.60;98584.00;;;;10547220;27;20216;-74
2023/10/27 00:05:14;;;;;;;27.67;7.43;;;;;10.60;98585.00;;;;10534162;27;20834;-74
2023/10/27 00:10:15;;;;;;;23.67;6.93;;;;;10.60;98581.00;;;;10565028;27;20188;-73
2023/10/27 00:15:18;;;;;;;21.47;6.90;;;;;10.60;98576.00;;;;10510941;27;20725;-74
2023/10/27 00:20:20;;;;;;;20.70;5.93;;;;;10.60;98578.00;;;;10523991;27;20220;-74
2023/10/27 00:25:24;;;;;;;25.73;6.30;;;;;10.60;98571.00;;;;10567615;27;20207;-74
2023/10/27 00:30:26;;;;;;;27.23;7.50;;;;;10.60;98578.00;;;;10531378;27;20199;-74
2023/10/27 00:35:28;;;;;;;18.55;6.40;;;;;10.60;98563.00;;;;10552138;27;20204;-75
2023/10/27 00:40:29;;;;;;;18.93;6.33;;;;;10.60;98566.00;;;;10555795;27;20849;-74
2023/10/27 00:45:32;;;;;;;25.53;6.67;;;;;10.60;98558.00;;;;10562447;27;20264;-74
2023/10/27 00:50:34;;;;;;;21.63;7.83;;;;;10.60;98558.00;;;;10537913;27;20204;-74
2023/10/27 00:55:36;;;;;;;17.80;6.03;;;;;10.60;98556.00;;;;10558266;27;20204;-74
2023/10/27 01:00:38;;;;;;;20.50;7.63;;;;;10.60;98553.00;;;;10547378;27;20212;-73
2023/10/27 01:05:42;;;;;;;17.37;7.57;;;;;10.60;98554.00;;;;10518171;28;20210;-70
2023/10/27 01:10:44;;;;;;;22.57;6.70;;;;;10.60;98550.00;;;;10522559;28;20254;-71
2023/10/27 01:15:46;;;;;;;21.27;7.07;;;;;10.60;98552.00;;;;10538237;28;20705;-71
2023/10/27 01:20:48;;;;;;;18.07;7.80;;;;;10.60;98550.00;;;;10551074;27;20266;-70
2023/10/27 01:25:50;;;;;;;25.70;7.30;;;;;10.60;98540.00;;;;10547443;27;20216;-71
2023/10/27 01:30:52;;;;;;;21.50;7.37;;;;;10.60;98550.00;;;;10559935;27;20274;-71
2023/10/27 01:35:54;;;;;;;24.40;8.00;;;;;10.60;98543.00;;;;10534246;27;20207;-70
2023/10/27 01:40:56;;;;;;;16.80;7.53;;;;;10.70;98534.00;;;;10517786;27;20887;-71
2023/10/27 01:45:58;;;;;;;25.13;7.87;;;;;10.70;98542.00;;;;10559279;27;20192;-70
2023/10/27 01:51:00;;;;;;;20.37;7.57;;;;;10.60;98529.00;;;;10532684;27;20204;-71
2023/10/27 01:56:02;;;;;;;27.97;7.47;;;;;10.60;98526.00;;;;10535401;27;20319;-70
2023/10/27 02:01:04;;;;;;;22.53;6.83;;;;;10.60;98516.00;;;;10563523;27;20216;-71
2023/10/27 02:06:06;;;;;;;24.80;7.17;;;;;10.60;98520.00;;;;10556216;27;20196;-71
2023/10/27 02:11:08;;;;;;;23.13;7.13;;;;;10.60;98516.00;;;;10546954;27;20296;-74
2023/10/27 02:16:10;;;;;;;27.97;7.10;;;;;10.60;98510.00;;;;10559537;27;20319;-73
2023/10/27 02:21:12;;;;;;;22.33;7.90;;;;;10.60;98511.00;;;;10535048;27;20289;-73
2023/10/27 02:26:13;;;;;;;14.87;6.63;;;;;10.60;98512.00;;;;10558104;27;20235;-72
2023/10/27 02:31:15;;;;;;;22.10;6.30;;;;;10.60;98507.00;;;;10534253;27;20196;-72
2023/10/27 02:36:17;;;;;;;23.77;7.00;;;;;10.60;98505.00;;;;10556445;27;20283;-72
2023/10/27 02:41:19;;;;;;;16.20;6.13;;;;;10.60;98504.00;;;;10554758;27;20215;-72
2023/10/27 02:46:21;;;;;;;16.50;6.20;;;;;10.60;98504.00;;;;10558461;27;20344;-72
2023/10/27 02:51:23;;;;;;;13.90;5.90;;;;;10.60;98504.00;;;;10534408;27;20204;-73
2023/10/27 02:56:25;;;;;;;17.37;5.07;;;;;10.60;98496.00;;;;10559517;27;20213;-72
2023/10/27 03:01:26;;;;;;;19.20;5.80;;;;;10.60;98507.00;;;;10536926;27;20303;-72
2023/10/27 03:06:28;;;;;;;30.97;5.67;;;;;10.60;98508.00;;;;10564355;27;20756;-72
2023/10/27 03:11:30;;;;;;;14.43;5.80;;;;;10.60;98494.00;;;;10559401;27;20214;-72
2023/10/27 03:16:32;;;;;;;16.13;5.77;;;;;10.60;98506.00;;;;10560888;27;20620;-72
2023/10/27 03:21:35;;;;;;;25.50;7.25;;;;;10.60;98508.00;;;;10521656;27;20216;-73
2023/10/27 03:26:37;;;;;;;28.43;6.93;;;;;10.60;98511.00;;;;10552517;27;20275;-74
2023/10/27 03:31:39;;;;;;;17.93;7.70;;;;;10.70;98508.00;;;;10561601;27;20615;-74
2023/10/27 03:36:40;;;;;;;16.87;4.90;;;;;10.60;98515.00;;;;10538901;27;20292;-74
2023/10/27 03:41:43;;;;;;;13.77;3.70;;;;;10.60;98512.00;;;;10567881;27;20236;-73
2023/10/27 03:46:45;;;;;;;7.63;3.50;;;;;10.50;98517.00;;;;10544643;27;20709;-73
2023/10/27 03:51:47;;;;;;;12.50;3.63;;;;;10.50;98504.00;;;;10517595;27;20231;-73
2023/10/27 03:56:49;;;;;;;12.60;3.73;;;;;10.50;98508.00;;;;10518652;27;20243;-73
2023/10/27 04:01:51;;;;;;;17.73;4.57;;;;;10.40;98514.00;;;;10542172;27;20220;-73
2023/10/27 04:06:54;;;;;;;13.03;3.73;;;;;10.40;98518.00;;;;10549124;27;20259;-73
2023/10/27 04:11:56;;;;;;;12.33;4.23;;;;;10.40;98512.00;;;;10539939;27;20205;-73
2023/10/27 04:16:59;;;;;;;11.27;4.63;;;;;10.40;98514.00;;;;10529146;27;20816;-73
2023/10/27 04:22:01;;;;;;;12.30;4.93;;;;;10.40;98514.00;;;;10559469;27;20907;-73
2023/10/27 04:27:04;;;;;;;9.33;5.20;;;;;10.40;98522.00;;;;10533848;28;20852;-73
2023/10/27 04:32:06;;;;;;;12.30;5.83;;;;;10.50;98523.00;;;;10512624;27;20205;-70
2023/10/27 04:37:08;;;;;;;18.47;6.60;;;;;10.50;98527.00;;;;10530864;28;20746;-70
2023/10/27 04:42:09;;;;;;;19.93;6.50;;;;;10.50;98521.00;;;;10533441;28;20224;-71
2023/10/27 04:47:11;;;;;;;49.33;36.17;;;;;10.50;98524.00;;;;10539221;27;20219;-71
2023/10/27 04:52:13;;;;;;;16.77;7.97;;;;;10.50;98535.00;;;;10538715;27;20203;-70
2023/10/27 04:57:15;;;;;;;13.60;7.80;;;;;10.60;98526.00;;;;10543534;27;20206;-70
2023/10/27 05:02:17;;;;;;;12.47;6.40;;;;;10.60;98525.00;;;;10549158;27;20211;-71
2023/10/27 05:07:19;;;;;;;13.33;6.33;;;;;10.60;98527.00;;;;10539378;27;20285;-71
2023/10/27 05:12:21;;;;;;;23.77;5.90;;;;;10.60;98536.00;;;;10533821;28;20752;-70
2023/10/27 05:17:22;;;;;;;12.27;5.53;;;;;10.60;98527.00;;;;10528489;27;20514;-71
2023/10/27 05:22:24;;;;;;;13.10;7.23;;;;;10.70;98530.00;;;;10543368;28;20852;-69
2023/10/27 05:27:26;;;;;;;17.67;8.70;;;;;10.70;98527.00;;;;10549788;27;20206;-71
2023/10/27 05:32:29;;;;;;;15.23;8.83;;;;;10.80;98531.00;;;;10543468;28;20291;-70
2023/10/27 05:37:31;;;;;;;21.10;9.73;;;;;10.80;98528.00;;;;10520772;28;20207;-71
2023/10/27 05:42:33;;;;;;;32.10;10.60;;;;;10.80;98531.00;;;;10522536;28;20212;-70
2023/10/27 05:47:35;;;;;;;21.80;10.90;;;;;10.80;98535.00;;;;10539241;28;20803;-70
2023/10/27 05:52:37;;;;;;;21.45;11.57;;;;;10.80;98522.00;;;;10541589;28;20192;-70
2023/10/27 05:57:39;;;;;;;20.13;10.63;;;;;10.80;98529.00;;;;10540886;28;20196;-70
2023/10/27 06:02:41;;;;;;;29.90;12.47;;;;;10.80;98522.00;;;;10537867;28;20307;-70
2023/10/27 06:07:43;;;;;;;26.20;11.53;;;;;10.80;98528.00;;;;10536652;28;20196;-70
2023/10/27 06:12:44;;;;;;;29.37;12.47;;;;;10.70;98541.00;;;;10548640;27;20236;-71
2023/10/27 06:17:49;;;;;;;19.90;12.30;;;;;10.70;98545.00;;;;10543262;27;20193;-71
2023/10/27 06:22:50;;;;;;;24.23;13.43;;;;;10.70;98549.00;;;;10540985;27;20227;-70
2023/10/27 06:27:54;;;;;;;22.73;13.17;;;;;10.70;98555.00;;;;10524939;28;20209;-70
2023/10/27 06:32:55;;;;;;;24.67;14.27;;;;;10.70;98561.00;;;;10520105;27;20208;-70
2023/10/27 06:37:57;;;;;;;23.95;14.48;;;;;10.60;98559.00;;;;10517403;27;20208;-71
2023/10/27 06:42:59;;;;;;;25.30;13.17;;;;;10.60;98559.00;;;;10549092;27;20914;-69
2023/10/27 06:48:01;;;;;;;25.87;12.73;;;;;10.60;98560.00;;;;10550308;27;20973;-69
2023/10/27 06:53:04;;;;;;;27.80;13.60;;;;;10.60;98573.00;;;;10555967;27;20283;-73
2023/10/27 06:58:07;;;;;;;28.10;13.27;;;;;10.70;98582.00;;;;10533854;27;20234;-73
2023/10/27 07:03:09;;;;;;;31.43;14.33;;;;;10.80;98578.00;;;;10564745;27;20365;-73
2023/10/27 07:08:30;;;;;;;24.97;12.30;;;;;10.90;98579.00;;;;10565161;27;20202;-73
2023/10/27 07:13:32;;;;;;;22.93;12.20;;;;;11.00;98583.00;;;;10537658;27;20188;-74
2023/10/27 07:18:34;;;;;;;30.30;13.73;;;;;11.10;98584.00;;;;10539168;28;20211;-73
2023/10/27 07:23:36;;;;;;;30.47;13.80;;;;;11.20;98595.00;;;;10547113;27;20318;-73
2023/10/27 07:28:39;;;;;;;34.47;14.03;;;;;11.40;98589.00;;;;10531425;27;20246;-73
2023/10/27 07:33:41;;;;;;;22.67;10.88;;;;;11.60;98600.00;;;;10526368;28;20689;-73
2023/10/27 07:38:43;;;;;;;25.95;10.43;;;;;11.70;98609.00;;;;10537799;28;20262;-73
2023/10/27 07:43:44;;;;;;;22.50;9.63;;;;;11.80;98608.00;;;;10554531;28;20715;-74
2023/10/27 07:48:46;;;;;;;16.58;8.52;;;;;11.80;98616.00;;;;10552898;28;20202;-73
2023/10/27 07:53:49;;;;;;;16.95;6.45;;;;;11.80;98637.00;;;;10546353;28;20724;-73
2023/10/27 07:58:52;;;;;;;14.00;6.88;;;;;11.70;98639.00;;;;10525600;28;20193;-74
2023/10/27 08:03:54;;;;;;;17.25;6.53;;;;;11.80;98651.00;;;;10551354;28;20236;-72
2023/10/27 08:08:55;;;;;;;14.65;6.60;;;;;11.80;98648.00;;;;10536042;28;20305;-73
2023/10/27 08:13:57;;;;;;;12.38;7.10;;;;;11.80;98637.00;;;;10549755;28;20796;-72
2023/10/27 08:18:59;;;;;;;17.50;6.53;;;;;11.80;98645.00;;;;10559508;28;20192;-72
2023/10/27 08:24:01;;;;;;;19.55;8.48;;;;;11.80;98642.00;;;;10547894;28;20219;-72
2023/10/27 08:29:03;;;;;;;19.45;10.02;;;;;12.10;98650.00;;;;10555908;28;20193;-72
2023/10/27 08:34:07;;;;;;;19.30;10.95;;;;;12.40;98657.00;;;;10556170;28;20195;-72
2023/10/27 08:39:11;;;;;;;29.67;12.57;;;;;12.50;98650.00;;;;10557802;28;20185;-72
2023/10/27 08:44:13;;;;;;;28.30;14.07;;;;;12.90;98651.00;;;;10549313;28;20283;-72
2023/10/27 08:49:26;;;;;;;28.20;11.80;;;;;13.00;98653.00;;;;10547091;28;20189;-72
2023/10/27 08:54:31;;;;;;;21.98;12.45;;;;;13.20;98657.00;;;;10538649;28;20196;-73
2023/10/27 08:59:35;;;;;;;24.02;13.25;;;;;13.40;98654.00;;;;10531965;28;20272;-73
2023/10/27 09:04:44;;;;;;;28.95;12.45;;;;;13.30;98656.00;;;;10530820;28;20259;-72
2023/10/27 09:09:45;;;;;;;32.17;13.02;;;;;13.20;98664.00;;;;10531045;28;20193;-73
2023/10/27 09:14:58;;;;;;;32.05;12.95;;;;;13.10;98672.00;;;;10550541;28;20288;-75
2023/10/27 09:20:09;;;;;;;21.23;11.02;;;;;12.80;98678.00;;;;10548886;28;20602;-73
2023/10/27 09:25:17;;;;;;;21.55;10.77;;;;;12.60;98682.00;;;;10547408;28;20215;-74
2023/10/27 09:30:27;;;;;;;25.90;11.02;;;;;12.60;98681.00;;;;10538904;28;20241;-74
2023/10/27 09:35:29;;;;;;;26.50;10.77;;;;;12.60;98680.00;;;;10529450;28;20224;-75
2023/10/27 09:40:34;;;;;;;21.48;9.02;;;;;12.50;98688.00;;;;10551330;28;20204;-74
2023/10/27 09:45:37;;;;;;;17.80;8.77;;;;;12.40;98697.00;;;;10559780;28;20196;-74
2023/10/27 09:50:45;;;;;;;18.17;9.27;;;;;12.40;98697.00;;;;10559288;28;20896;-73
2023/10/27 09:55:47;;;;;;;16.58;7.15;;;;;12.30;98702.00;;;;10550122;28;20267;-73
2023/10/27 10:00:50;;;;;;;19.08;6.72;;;;;12.20;98711.00;;;;10555237;28;20203;-74
2023/10/27 10:06:14;;;;;;;11.70;6.15;;;;;12.20;98706.00;;;;10558904;27;20204;-74
2023/10/27 10:11:18;;;;;;;16.35;6.82;;;;;12.30;98703.00;;;;10534033;28;20193;-73
2023/10/27 10:16:21;;;;;;;13.45;6.15;;;;;12.50;98702.00;;;;10539989;28;20292;-74
2023/10/27 10:21:44;;;;;;;15.10;6.35;;;;;12.80;98711.00;;;;10537107;28;20287;-72
2023/10/27 10:27:10;;;;;;;21.35;6.18;;;;;13.00;98710.00;;;;10534141;28;20269;-73
2023/10/27 10:32:29;;;;;;;13.68;6.32;;;;;13.50;98710.00;;;;10538141;27;20188;-72
2023/10/27 10:37:31;;;;;;;11.70;6.53;;;;;13.80;98713.00;;;;10536799;28;20188;-73
2023/10/27 10:43:11;;;;;;;19.00;5.70;;;;;13.90;98713.00;;;;10557269;28;20206;-72
2023/10/27 10:48:13;;;;;;;12.25;5.00;;;;;13.60;98715.00;;;;10523054;28;20263;-72
2023/10/27 10:53:17;;;;;;;14.48;5.97;;;;;13.30;98714.00;;;;10558281;27;20230;-72
2023/10/27 10:58:24;;;;;;;9.75;4.72;;;;;13.10;98730.00;;;;10549288;27;20180;-72
2023/10/27 11:03:28;;;;;;;15.70;4.75;;;;;13.00;98743.00;;;;10550385;27;20200;-72
2023/10/27 11:08:34;;;;;;;12.10;4.60;;;;;13.20;98729.00;;;;10554499;27;20189;-73
2023/10/27 11:13:48;;;;;;;11.52;4.65;;;;;13.40;98734.00;;;;10528735;28;20775;-72
2023/10/27 11:18:59;;;;;;;16.38;4.60;;;;;13.60;98731.00;;;;10548697;28;20180;-73
2023/10/27 11:24:07;;;;;;;12.40;4.18;;;;;14.00;98747.00;;;;10533844;28;20239;-73
2023/10/27 11:29:09;;;;;;;13.77;4.32;;;;;13.90;98739.00;;;;10554269;28;20188;-73
2023/10/27 11:34:12;;;;;;;9.98;4.07;;;;;13.80;98740.00;;;;10534460;28;20193;-70
2023/10/27 11:39:17;;;;;;;9.75;3.90;;;;;13.70;98730.00;;;;10550155;28;20280;-70
2023/10/27 11:44:19;;;;;;;8.68;4.22;;;;;14.30;98723.00;;;;10532165;28;20213;-73
2023/10/27 11:49:21;;;;;;;11.38;5.20;;;;;15.10;98721.00;;;;10551168;28;20224;-73
2023/10/27 11:54:24;;;;;;;13.23;3.85;;;;;15.40;98711.00;;;;10555132;28;20185;-73
2023/10/27 11:59:26;;;;;;;10.43;4.15;;;;;15.40;98712.00;;;;10536552;28;20226;-73
2023/10/27 12:04:28;;;;;;;12.40;4.00;;;;;15.10;98714.00;;;;10521072;28;20245;-73
2023/10/27 12:09:30;;;;;;;6.43;3.38;;;;;14.90;98705.00;;;;10543958;28;20208;-73
2023/10/27 12:14:33;;;;;;;9.88;3.83;;;;;15.20;98671.00;;;;10550356;28;20195;-72
2023/10/27 12:19:35;;;;;;;9.75;3.78;;;;;16.00;98684.00;;;;10545874;28;20188;-73
2023/10/27 12:24:37;;;;;;;7.53;3.50;;;;;16.60;98697.00;;;;10531236;28;20244;-73
2023/10/27 12:29:39;;;;;;;6.45;2.95;;;;;16.90;98700.00;;;;10515575;27;20589;-73
2023/10/27 12:34:41;;;;;;;8.45;2.35;;;;;16.60;98722.00;;;;10525847;28;20880;-73
2023/10/27 12:39:43;;;;;;;7.40;2.50;;;;;16.20;98710.00;;;;10535885;28;20197;-73
2023/10/27 12:44:45;;;;;;;3.00;1.70;;;;;15.90;98713.00;;;;10552448;28;20194;-73
2023/10/27 12:49:48;;;;;;;4.05;1.58;;;;;15.50;98714.00;;;;10530375;28;20185;-73
2023/10/27 12:54:50;;;;;;;6.78;1.80;;;;;15.00;98712.00;;;;10549385;28;20184;-73
2023/10/27 12:59:53;;;;;;;2.75;1.40;;;;;14.60;98711.00;;;;10513779;28;20194;-73
2023/10/27 13:04:56;;;;;;;2.15;1.42;;;;;14.90;98714.00;;;;10542084;28;20265;-73
2023/10/27 13:09:58;;;;;;;7.40;1.80;;;;;15.30;98715.00;;;;10543734;28;20195;-73
2023/10/27 13:15:01;;;;;;;7.25;1.63;;;;;15.10;98719.00;;;;10526966;28;20575;-73
2023/10/27 13:20:04;;;;;;;4.80;2.08;;;;;15.20;98720.00;;;;10544721;28;20188;-73
2023/10/27 13:25:07;;;;;;;6.88;1.50;;;;;15.30;98736.00;;;;10556867;28;20228;-73
2023/10/27 13:30:09;;;;;;;4.47;1.42;;;;;15.30;98739.00;;;;10556182;28;20600;-72
2023/10/27 13:35:11;;;;;;;4.32;1.17;;;;;15.10;98750.00;;;;10550915;28;20295;-73
2023/10/27 13:40:14;;;;;;;3.75;1.48;;;;;14.80;98752.00;;;;10521121;28;20287;-73
2023/10/27 13:45:16;;;;;;;3.25;1.42;;;;;14.70;98754.00;;;;10523701;28;20262;-73
2023/10/27 13:50:18;;;;;;;2.72;1.00;;;;;14.60;98751.00;;;;10553143;28;20223;-72
2023/10/27 13:55:20;;;;;;;5.97;1.50;;;;;14.60;98756.00;;;;10553236;28;20193;-72
2023/10/27 14:00:27;;;;;;;8.52;1.10;;;;;15.00;98756.00;;;;10556722;28;20255;-73
2023/10/27 14:05:29;;;;;;;6.43;1.50;;;;;14.80;98783.00;;;;10523239;28;20282;-73
2023/10/27 14:10:31;;;;;;;5.60;1.92;;;;;14.70;98784.00;;;;10540394;27;20202;-72
2023/10/27 14:15:34;;;;;;;6.90;1.75;;;;;15.10;98799.00;;;;10535193;28;20188;-72
2023/10/27 14:20:36;;;;;;;6.22;1.52;;;;;14.90;98799.00;;;;10540640;28;20589;-73
2023/10/27 14:25:38;;;;;;;5.90;1.65;;;;;14.50;98809.00;;;;10538987;28;20220;-73
2023/10/27 14:30:40;;;;;;;4.60;1.30;;;;;14.20;98799.00;;;;10538290;28;20227;-73
2023/10/27 14:35:42;;;;;;;3.15;1.55;;;;;14.00;98793.00;;;;10551260;27;20722;-73
2023/10/27 14:40:51;;;;;;;4.30;1.58;;;;;14.20;98797.00;;;;10546542;27;20602;-73
2023/10/27 14:45:58;;;;;;;6.53;1.75;;;;;14.10;98791.00;;;;10554469;28;20271;-73
2023/10/27 14:51:03;;;;;;;9.00;1.70;;;;;14.40;98804.00;;;;10562304;28;21676;-73
2023/10/27 14:56:10;;;;;;;4.93;1.65;;;;;14.10;98801.00;;;;10549009;28;20203;-72
2023/10/27 15:01:15;;;;;;;12.20;2.25;;;;;14.20;98800.00;;;;10556873;28;20204;-73
2023/10/27 15:06:18;;;;;;;5.00;1.63;;;;;14.00;98813.00;;;;10545091;28;20269;-73
2023/10/27 15:11:20;;;;;;;6.35;1.85;;;;;13.90;98823.00;;;;10552898;28;20550;-72
2023/10/27 15:16:22;;;;;;;4.80;1.85;;;;;13.80;98826.00;;;;10526127;28;20200;-73
2023/10/27 15:21:24;;;;;;;10.05;2.42;;;;;13.70;98811.00;;;;10538734;28;20590;-73
2023/10/27 15:26:26;;;;;;;9.65;1.70;;;;;13.50;98802.00;;;;10552972;28;20279;-73
2023/10/27 15:31:28;;;;;;;6.07;1.83;;;;;13.20;98810.00;;;;10549061;28;20196;-73
2023/10/27 15:36:30;;;;;;;9.38;2.60;;;;;13.10;98816.00;;;;10519447;28;20200;-73
2023/10/27 15:41:34;;;;;;;8.45;2.22;;;;;13.00;98813.00;;;;10551148;28;20205;-73
2023/10/27 15:46:38;;;;;;;8.88;2.10;;;;;13.00;98814.00;;;;10517011;28;20201;-73
2023/10/27 15:51:40;;;;;;;9.70;1.95;;;;;13.00;98808.00;;;;10508888;28;20199;-73
2023/10/27 15:56:41;;;;;;;9.75;2.05;;;;;12.90;98812.00;;;;10540300;28;20196;-73
2023/10/27 16:01:43;;;;;;;10.65;2.10;;;;;12.70;98803.00;;;;10547432;27;20670;-73
2023/10/27 16:06:46;;;;;;;8.60;2.03;;;;;12.60;98810.00;;;;10559400;27;20238;-73
2023/10/27 16:11:47;;;;;;;7.90;2.42;;;;;12.40;98810.00;;;;10546613;27;20197;-73
2023/10/27 16:16:49;;;;;;;11.52;2.20;;;;;12.20;98821.00;;;;10535944;27;20840;-73
2023/10/27 16:21:51;;;;;;;13.63;2.83;;;;;12.10;98829.00;;;;10531701;27;20584;-75
2023/10/27 16:26:54;;;;;;;17.25;3.15;;;;;12.00;98822.00;;;;10553144;27;20195;-75
2023/10/27 16:31:56;;;;;;;10.48;2.30;;;;;11.80;98821.00;;;;10545856;27;20199;-75
2023/10/27 16:36:58;;;;;;;8.10;2.40;;;;;11.70;98826.00;;;;10552782;27;20195;-76
2023/10/27 16:42:03;;;;;;;8.25;2.88;;;;;11.60;98825.00;;;;10535517;28;20246;-75
2023/10/27 16:47:05;;;;;;;10.82;2.97;;;;;11.40;98830.00;;;;10529609;27;20189;-75
2023/10/27 16:52:07;;;;;;;9.80;2.75;;;;;11.30;98822.00;;;;10515456;28;20197;-74
2023/10/27 16:57:11;;;;;;;11.02;2.72;;;;;11.20;98833.00;;;;10553189;27;20238;-74
2023/10/27 17:02:15;;;;;;;11.10;2.58;;;;;11.20;98837.00;;;;10528756;28;20211;-75
2023/10/27 17:07:18;;;;;;;13.55;4.13;;;;;11.10;98838.00;;;;10548758;28;20215;-75
2023/10/27 17:12:20;;;;;;;12.50;2.73;;;;;11.00;98841.00;;;;10532152;28;20220;-75
2023/10/27 17:17:22;;;;;;;9.97;3.10;;;;;11.00;98847.00;;;;10543130;28;20196;-74
2023/10/27 17:22:24;;;;;;;9.45;3.13;;;;;11.00;98841.00;;;;10550136;28;20236;-75
2023/10/27 17:27:26;;;;;;;10.23;3.47;;;;;11.00;98843.00;;;;10524361;28;20197;-75
2023/10/27 17:32:28;;;;;;;7.73;2.53;;;;;10.90;98838.00;;;;10522185;28;20295;-72
2023/10/27 17:37:31;;;;;;;12.07;3.50;;;;;10.90;98846.00;;;;10504026;28;20187;-73
2023/10/27 17:42:33;;;;;;;6.77;3.23;;;;;10.80;98841.00;;;;10527314;28;20261;-73
2023/10/27 17:47:35;;;;;;;10.67;3.10;;;;;10.80;98840.00;;;;10499877;28;20646;-72
2023/10/27 17:52:37;;;;;;;8.77;3.17;;;;;10.80;98835.00;;;;10543080;28;20196;-72
2023/10/27 17:57:39;;;;;;;19.20;4.30;;;;;10.80;98845.00;;;;10533324;28;20255;-72
2023/10/27 18:02:41;;;;;;;11.77;3.90;;;;;10.80;98841.00;;;;10513878;28;20720;-73
2023/10/27 18:07:47;;;;;;;14.73;3.47;;;;;10.80;98849.00;;;;10529069;28;20792;-72
2023/10/27 18:12:48;;;;;;;10.88;3.83;;;;;10.80;98854.00;;;;10524003;28;20254;-72
2023/10/27 18:17:50;;;;;;;8.03;3.60;;;;;10.80;98851.00;;;;10544360;28;20177;-73
2023/10/27 18:22:52;;;;;;;9.07;3.50;;;;;10.70;98852.00;;;;10536068;27;20200;-73
2023/10/27 18:27:54;;;;;;;11.10;4.10;;;;;10.60;98853.00;;;;10541425;27;20192;-73
2023/10/27 18:32:59;;;;;;;14.60;5.20;;;;;10.60;98854.00;;;;10542544;27;20845;-72
2023/10/27 18:38:01;;;;;;;18.77;5.93;;;;;10.50;98847.00;;;;10546067;28;20192;-72
2023/10/27 18:43:04;;;;;;;10.20;4.53;;;;;10.40;98842.00;;;;10540300;27;20208;-72
2023/10/27 18:48:05;;;;;;;9.33;4.23;;;;;10.30;98845.00;;;;10546324;27;20185;-70
2023/10/27 18:53:07;;;;;;;11.33;4.10;;;;;10.20;98842.00;;;;10534396;27;20275;-70
2023/10/27 18:58:09;;;;;;;13.93;4.60;;;;;10.10;98843.00;;;;10544392;27;20193;-70
2023/10/27 19:03:11;;;;;;;12.70;4.30;;;;;10.00;98857.00;;;;10531630;28;20747;-69
2023/10/27 19:08:13;;;;;;;11.13;3.90;;;;;9.90;98846.00;;;;10542994;27;20634;-71
2023/10/27 19:13:15;;;;;;;11.67;3.60;;;;;9.80;98855.00;;;;10543754;28;20196;-70
2023/10/27 19:18:17;;;;;;;13.83;3.90;;;;;9.80;98854.00;;;;10530510;28;20238;-70
2023/10/27 19:23:19;;;;;;;12.80;3.47;;;;;9.70;98862.00;;;;10543954;28;20655;-69
2023/10/27 19:28:21;;;;;;;16.10;4.43;;;;;9.60;98858.00;;;;10531839;28;20200;-70
2023/10/27 19:33:23;;;;;;;10.37;3.80;;;;;9.50;98868.00;;;;10551964;28;20194;-69
2023/10/27 19:38:25;;;;;;;12.87;4.40;;;;;9.60;98873.00;;;;10545067;28;20193;-70
2023/10/27 19:43:27;;;;;;;12.33;4.07;;;;;9.60;98874.00;;;;10534023;28;20830;-71
2023/10/27 19:48:30;;;;;;;16.53;4.30;;;;;9.70;98877.00;;;;10525069;28;20204;-71
2023/10/27 19:53:34;;;;;;;16.27;4.27;;;;;9.60;98888.00;;;;10527328;28;20623;-68
2023/10/27 19:58:36;;;;;;;14.40;4.07;;;;;9.60;98896.00;;;;10543957;27;20224;-69
2023/10/27 20:03:38;;;;;;;10.17;3.90;;;;;9.70;98890.00;;;;10525856;28;20216;-69
2023/10/27 20:08:41;;;;;;;16.73;4.83;;;;;9.70;98897.00;;;;10539739;27;20192;-70
2023/10/27 20:13:44;;;;;;;15.17;4.50;;;;;9.70;98904.00;;;;10522746;28;20238;-69
2023/10/27 20:18:47;;;;;;;22.03;4.77;;;;;9.70;98904.00;;;;10537219;28;20189;-69
2023/10/27 20:23:49;;;;;;;11.77;3.83;;;;;9.70;98910.00;;;;10537499;28;20315;-69
2023/10/27 20:28:51;;;;;;;13.80;4.47;;;;;9.70;98907.00;;;;10525321;28;20272;-70
2023/10/27 20:33:53;;;;;;;19.17;4.73;;;;;9.70;98915.00;;;;10534404;28;20216;-69
2023/10/27 20:38:58;;;;;;;12.60;4.07;;;;;9.60;98911.00;;;;10519808;28;20580;-69
2023/10/27 20:44:01;;;;;;;13.07;4.17;;;;;9.60;98909.00;;;;10533634;28;20212;-70
2023/10/27 20:49:04;;;;;;;9.70;3.70;;;;;9.60;98908.00;;;;10532540;28;20200;-69
2023/10/27 20:54:06;;;;;;;13.43;4.23;;;;;9.60;98902.00;;;;10546949;28;20753;-69
2023/10/27 20:59:08;;;;;;;14.23;4.17;;;;;9.60;98907.00;;;;10537911;27;20246;-69
2023/10/27 21:04:09;;;;;;;12.50;3.97;;;;;9.70;98908.00;;;;10534005;28;20290;-69
2023/10/27 21:09:13;;;;;;;15.77;4.60;;;;;9.70;98918.00;;;;10507312;28;21293;-70
2023/10/27 21:14:14;;;;;;;22.50;4.77;;;;;9.90;98917.00;;;;10535629;28;20663;-71
2023/10/27 21:19:17;;;;;;;14.47;4.13;;;;;10.00;98918.00;;;;10523934;28;20200;-70
2023/10/27 21:24:18;;;;;;;14.93;4.67;;;;;10.10;98921.00;;;;10535461;28;20739;-69
2023/10/27 21:29:20;;;;;;;15.27;5.50;;;;;10.10;98923.00;;;;10538477;28;20188;-70
2023/10/27 21:34:22;;;;;;;15.17;5.43;;;;;10.20;98920.00;;;;10522098;28;20303;-69
2023/10/27 21:39:24;;;;;;;18.67;4.37;;;;;10.20;98917.00;;;;10540188;28;20298;-69
2023/10/27 21:44:26;;;;;;;8.90;3.97;;;;;10.30;98921.00;;;;10545566;28;20192;-68
2023/10/27 21:49:27;;;;;;;12.43;4.33;;;;;10.30;98921.00;;;;10526982;28;20211;-69
2023/10/27 21:54:29;;;;;;;15.50;4.63;;;;;10.40;98930.00;;;;10541209;28;20211;-69
2023/10/27 21:59:33;;;;;;;17.17;4.20;;;;;10.40;98934.00;;;;10547400;27;20188;-69
2023/10/27 22:04:34;;;;;;;13.33;3.83;;;;;10.40;98946.00;;;;10554132;27;20669;-69
2023/10/27 22:09:37;;;;;;;14.13;4.00;;;;;10.50;98940.00;;;;10547631;27;20181;-69
2023/10/27 22:14:39;;;;;;;11.47;3.80;;;;;10.50;98939.00;;;;10515814;28;20195;-71
2023/10/27 22:19:41;;;;;;;12.57;3.33;;;;;10.60;98939.00;;;;10559612;28;20625;-71
2023/10/27 22:24:43;;;;;;;10.73;3.90;;;;;10.70;98939.00;;;;10544026;28;20266;-71
2023/10/27 22:29:45;;;;;;;15.20;3.87;;;;;10.70;98946.00;;;;10550006;28;20280;-71
2023/10/27 22:34:48;;;;;;;16.00;3.87;;;;;10.80;98948.00;;;;10531993;28;20662;-71
2023/10/27 22:39:49;;;;;;;10.83;3.47;;;;;10.80;98959.00;;;;10532166;28;20188;-71
2023/10/27 22:44:51;;;;;;;12.47;3.13;;;;;10.80;98958.00;;;;10528182;28;20222;-70
2023/10/27 22:49:53;;;;;;;11.67;3.43;;;;;10.80;98963.00;;;;10548108;28;20746;-71
2023/10/27 22:54:55;;;;;;;11.33;3.37;;;;;10.80;98957.00;;;;10541318;27;20215;-71
2023/10/27 22:59:57;;;;;;;14.55;3.65;;;;;10.80;98947.00;;;;10534778;28;20272;-70
2023/10/27 23:04:59;;;;;;;14.33;2.80;;;;;10.80;98964.00;;;;10520197;28;20287;-71
2023/10/27 23:10:01;;;;;;;9.80;2.60;;;;;10.80;98967.00;;;;10535125;28;20214;-71
2023/10/27 23:15:07;;;;;;;11.73;2.30;;;;;10.70;98977.00;;;;10550346;28;20196;-71
2023/10/27 23:20:12;;;;;;;11.37;2.90;;;;;10.70;98969.00;;;;10539776;27;20192;-71
2023/10/27 23:25:14;;;;;;;7.40;2.10;;;;;10.70;98968.00;;;;10545207;28;20224;-72
2023/10/27 23:30:16;;;;;;;5.87;2.40;;;;;10.70;98968.00;;;;10547657;28;20233;-73
2023/10/27 23:35:22;;;;;;;8.27;2.20;;;;;10.70;98972.00;;;;10523594;28;20196;-72
2023/10/27 23:40:24;;;;;;;8.50;2.63;;;;;10.60;98968.00;;;;10536876;27;20599;-72
2023/10/27 23:45:26;;;;;;;7.87;2.30;;;;;10.50;98963.00;;;;10503487;28;20207;-72
2023/10/27 23:50:28;;;;;;;7.27;2.40;;;;;10.50;98970.00;;;;10542502;28;20279;-72
2023/10/27 23:55:30;;;;;;;7.27;2.30;;;;;10.40;98970.00;;;;10531488;28;20193;-72
